Time;durP1;ratioP1;P1;durP2;ratioP2;P2;SDS_P1;SDS_P2;PMS_P1;PMS_P2;Temp;Humidity;BMP_temperature;BMP_pressure;BME280_temperature;BME280_humidity;BME280_pressure;Samples;Min_cycle;Max_cycle;Signal;HPM_P1;HPM_P2
2021/08/21 07:22:11;;;;;;;8.63;6.33;;;21.00;99.90;;;;;;4963916;28;20466;-87
2021/08/21 07:24:40;;;;;;;7.10;6.10;;;20.90;99.90;;;;;;4957358;29;20434;-84
2021/08/21 07:27:16;;;;;;;6.53;5.93;;;21.00;99.90;;;;;;4965485;28;20484;-86
2021/08/21 07:29:43;;;;;;;6.20;5.60;;;20.80;99.90;;;;;;4959928;28;20830;-84
2021/08/21 07:32:10;;;;;;;6.10;5.43;;;20.90;99.90;;;;;;4966283;28;20447;-86
2021/08/21 07:34:38;;;;;;;6.90;6.03;;;20.90;99.90;;;;;;4973931;28;20525;-84
2021/08/21 07:37:06;;;;;;;8.37;6.50;;;20.90;99.90;;;;;;4977120;28;20709;-83
2021/08/21 07:39:34;;;;;;;7.83;7.03;;;20.90;99.90;;;;;;4966958;28;20446;-85
2021/08/21 07:42:01;;;;;;;6.60;5.90;;;21.00;99.90;;;;;;4970198;28;20510;-87
2021/08/21 07:44:29;;;;;;;5.00;4.50;;;21.10;99.90;;;;;;4977699;28;20457;-83
2021/08/21 07:46:57;;;;;;;7.60;5.97;;;21.40;99.90;;;;;;4979510;28;20473;-81
2021/08/21 07:49:24;;;;;;;6.30;4.93;;;21.40;99.90;;;;;;4966580;28;20450;-82
2021/08/21 07:51:51;;;;;;;7.20;5.90;;;21.60;99.90;;;;;;4980287;28;20501;-81
2021/08/21 07:54:18;;;;;;;7.60;5.60;;;21.50;99.90;;;;;;4980187;28;20445;-81
2021/08/21 07:56:46;;;;;;;8.27;6.77;;;21.50;99.90;;;;;;4980202;28;20450;-80
2021/08/21 07:59:13;;;;;;;6.00;5.40;;;21.40;99.90;;;;;;4980003;28;20438;-80
2021/08/21 08:01:40;;;;;;;7.03;6.17;;;21.30;99.90;;;;;;4982551;28;20424;-82
2021/08/21 08:04:07;;;;;;;8.93;6.97;;;21.30;99.90;;;;;;4983533;28;20459;-81
2021/08/21 08:06:34;;;;;;;7.17;6.27;;;21.10;99.90;;;;;;4979323;28;20457;-82
2021/08/21 08:09:01;;;;;;;9.27;6.83;;;21.20;99.90;;;;;;4980800;28;20488;-81
2021/08/21 08:11:29;;;;;;;7.93;6.10;;;21.10;99.90;;;;;;4978546;28;20454;-82
2021/08/21 08:13:57;;;;;;;8.40;6.33;;;21.10;99.90;;;;;;4983726;28;20446;-83
2021/08/21 08:16:25;;;;;;;8.77;7.40;;;21.40;99.90;;;;;;4966334;28;20463;-83
2021/08/21 08:18:52;;;;;;;7.57;6.57;;;21.50;99.90;;;;;;4967146;28;20540;-85
2021/08/21 08:21:21;;;;;;;9.53;7.53;;;21.40;99.90;;;;;;4967409;28;20461;-84
2021/08/21 08:23:49;;;;;;;7.13;6.43;;;21.60;99.90;;;;;;4957950;28;20458;-84
2021/08/21 08:26:16;;;;;;;8.77;7.90;;;21.50;99.90;;;;;;4976920;28;20469;-82
2021/08/21 08:28:43;;;;;;;11.00;8.80;;;21.50;99.90;;;;;;4977382;28;20466;-81
2021/08/21 08:31:11;;;;;;;13.23;9.57;;;21.30;99.90;;;;;;4980636;28;20446;-81
2021/08/21 08:33:39;;;;;;;13.27;10.30;;;21.30;99.90;;;;;;4969041;28;20442;-66
2021/08/21 08:36:06;;;;;;;12.03;9.13;;;21.20;99.90;;;;;;4949129;28;21001;-65
2021/08/21 08:38:33;;;;;;;11.23;8.90;;;21.30;99.90;;;;;;4956118;28;20517;-67
2021/08/21 08:41:01;;;;;;;10.63;9.27;;;21.30;99.90;;;;;;4963345;28;20445;-67
2021/08/21 08:43:29;;;;;;;12.77;11.00;;;21.40;99.90;;;;;;4957439;28;20457;-67
2021/08/21 08:45:56;;;;;;;19.53;11.97;;;21.50;99.90;;;;;;4960895;28;20467;-66
2021/08/21 08:48:25;;;;;;;14.07;12.50;;;21.40;99.90;;;;;;4953939;28;20481;-66
2021/08/21 08:50:54;;;;;;;12.87;11.50;;;21.40;99.90;;;;;;4959390;28;20461;-66
2021/08/21 08:53:22;;;;;;;13.53;11.37;;;21.50;99.90;;;;;;4960494;28;20947;-66
2021/08/21 08:55:49;;;;;;;16.40;12.70;;;21.50;99.90;;;;;;4960110;28;21010;-66
2021/08/21 08:58:16;;;;;;;16.77;11.90;;;21.60;99.90;;;;;;4955313;28;20451;-67
2021/08/21 09:00:43;;;;;;;14.70;11.77;;;21.70;99.90;;;;;;4964293;28;20943;-70
2021/08/21 09:03:20;;;;;;;13.87;11.40;;;21.60;99.90;;;;;;4956551;28;20458;-68
2021/08/21 09:05:49;;;;;;;12.40;10.80;;;21.80;99.90;;;;;;4962163;28;20512;-67
2021/08/21 09:39:34;;;;;;;11.83;10.63;;;22.70;99.90;;;;;;4882745;29;20441;-84
2021/08/21 09:42:05;;;;;;;14.10;10.87;;;22.80;99.90;;;;;;4887434;29;20486;-84
2021/08/21 09:44:34;;;;;;;14.30;12.73;;;23.20;99.90;;;;;;4895301;29;20470;-85
2021/08/21 09:47:22;;;;;;;14.70;13.23;;;23.40;99.90;;;;;;4873930;29;21126;-85
2021/08/21 09:49:49;;;;;;;12.40;10.80;;;23.50;99.90;;;;;;4971040;28;20481;-85
2021/08/21 09:52:19;;;;;;;18.77;12.07;;;23.60;99.90;;;;;;4974711;28;20459;-85
2021/08/21 09:55:02;;;;;;;15.57;13.97;;;23.80;99.90;;;;;;4965589;28;20457;-86
2021/08/21 09:57:30;;;;;;;16.03;13.33;;;23.60;99.90;;;;;;4974359;28;20537;-86
2021/08/21 10:00:00;;;;;;;16.60;14.67;;;23.30;99.90;;;;;;4968754;28;20470;-89
2021/08/21 10:02:31;;;;;;;15.40;13.50;;;23.50;99.90;;;;;;4964691;28;20451;-89
2021/08/21 10:04:59;;;;;;;14.77;12.30;;;23.80;99.90;;;;;;4965592;28;20456;-85
2021/08/21 10:07:34;;;;;;;14.70;12.70;;;24.10;99.90;;;;;;4970392;28;20435;-84
2021/08/21 10:10:07;;;;;;;15.13;13.30;;;24.20;99.90;;;;;;4970618;29;20820;-85
2021/08/21 10:12:36;;;;;;;15.70;13.00;;;24.20;99.90;;;;;;4967584;28;20475;-83
2021/08/21 10:15:05;;;;;;;14.23;12.40;;;24.40;99.90;;;;;;4968644;28;20455;-84
2021/08/21 10:17:44;;;;;;;14.43;12.93;;;24.40;99.90;;;;;;4956077;28;20440;-85
2021/08/21 10:20:13;;;;;;;15.87;13.50;;;24.30;99.90;;;;;;4961949;28;21012;-83
2021/08/21 10:22:41;;;;;;;16.33;12.40;;;24.20;99.90;;;;;;4964265;29;20452;-84
2021/08/21 10:25:14;;;;;;;16.17;14.33;;;24.10;99.90;;;;;;4963624;28;20446;-84
2021/08/21 10:27:45;;;;;;;13.90;12.50;;;24.00;99.90;;;;;;4959206;28;20474;-83
2021/08/21 10:30:20;;;;;;;14.53;12.93;;;24.20;99.90;;;;;;4963448;28;20456;-86
2021/08/21 10:32:59;;;;;;;14.70;12.20;;;24.30;99.90;;;;;;4970226;28;20438;-86
2021/08/21 10:35:46;;;;;;;14.27;12.70;;;24.30;99.90;;;;;;4973281;28;20481;-84
2021/08/21 10:38:40;;;;;;;17.30;13.40;;;24.50;99.90;;;;;;4969958;28;20443;-84
2021/08/21 10:41:38;;;;;;;16.03;13.70;;;24.60;99.90;;;;;;4974520;28;20461;-83
2021/08/21 10:44:08;;;;;;;13.57;12.17;;;24.80;99.90;;;;;;4981253;28;20463;-82
2021/08/21 10:46:52;;;;;;;12.93;11.63;;;25.40;99.90;;;;;;4986696;28;20489;-81
2021/08/21 10:49:44;;;;;;;17.73;14.80;;;26.00;99.90;;;;;;4976918;28;20566;-81
2021/08/21 10:52:49;;;;;;;16.73;13.70;;;26.00;99.90;;;;;;4981969;28;20447;-83
2021/08/21 10:55:18;;;;;;;16.53;13.43;;;26.10;99.90;;;;;;4985089;28;20452;-81
2021/08/21 10:57:59;;;;;;;16.53;14.67;;;26.30;99.90;;;;;;4966661;28;20449;-83
2021/08/21 11:00:52;;;;;;;19.00;17.00;;;25.90;99.90;;;;;;4998528;28;20481;-81
2021/08/21 11:03:46;;;;;;;15.70;14.20;;;25.90;99.90;;;;;;4977303;28;20449;-81
2021/08/21 11:06:16;;;;;;;16.70;14.10;;;25.40;99.90;;;;;;4984189;28;20470;-79
2021/08/21 11:08:56;;;;;;;17.47;14.60;;;25.40;99.90;;;;;;4979130;28;20501;-81
2021/08/21 11:11:32;;;;;;;16.87;15.13;;;25.30;99.90;;;;;;4973042;28;20522;-80
2021/08/21 11:14:03;;;;;;;17.47;15.63;;;25.10;99.90;;;;;;4975337;28;20543;-84
2021/08/21 11:16:50;;;;;;;14.90;13.00;;;24.80;99.90;;;;;;4959319;28;20717;-82
2021/08/21 11:19:40;;;;;;;18.87;16.83;;;24.90;99.90;;;;;;4961274;28;20443;-83
2021/08/21 11:22:20;;;;;;;16.70;14.93;;;24.80;99.90;;;;;;4960437;28;20451;-84
2021/08/21 11:25:09;;;;;;;19.50;16.87;;;24.80;99.90;;;;;;4963678;28;20453;-83
2021/08/21 11:28:34;;;;;;;17.63;15.70;;;24.50;99.90;;;;;;4960555;28;20453;-87
2021/08/21 11:45:12;;;;;;;15.33;13.63;;;25.20;99.90;;;;;;4983198;28;20449;-87
2021/08/21 13:55:36;;;;;;;10.23;9.20;;;25.10;99.90;;;;;;4839947;29;20528;-85
2021/08/21 14:48:39;;;;;;;13.73;10.07;;;25.90;98.10;;;;;;5944351;24;20427;-84
2021/08/21 14:54:28;;;;;;;11.10;10.00;;;25.30;99.00;;;;;;5939525;24;20452;-85
2021/08/21 16:37:46;;;;;;;10.33;9.33;;;24.30;99.90;;;;;;6195356;23;20578;-84
2021/08/21 16:40:28;;;;;;;10.03;8.03;;;24.30;99.90;;;;;;6192408;23;20395;-85
2021/08/21 16:42:55;;;;;;;10.73;9.73;;;24.30;99.90;;;;;;6174622;23;20399;-86
2021/08/21 16:45:23;;;;;;;10.33;9.30;;;24.40;99.90;;;;;;6195316;23;20419;-83
2021/08/21 16:47:51;;;;;;;9.50;8.60;;;24.40;99.90;;;;;;6199808;23;20419;-82
2021/08/21 16:50:19;;;;;;;10.37;9.23;;;24.30;99.90;;;;;;6194925;23;21088;-84
2021/08/21 16:52:49;;;;;;;10.57;8.73;;;24.40;99.90;;;;;;6197227;23;20794;-84
2021/08/21 16:55:16;;;;;;;11.00;9.90;;;24.30;99.90;;;;;;6199352;23;20402;-84
2021/08/21 16:57:43;;;;;;;11.67;10.43;;;24.10;99.90;;;;;;6200404;23;20388;-82
2021/08/21 17:00:11;;;;;;;11.07;9.97;;;23.90;99.90;;;;;;6200046;23;20487;-83
2021/08/21 17:02:38;;;;;;;8.80;7.90;;;23.90;99.90;;;;;;6198974;23;20435;-82
2021/08/21 17:05:07;;;;;;;9.73;8.83;;;23.90;99.90;;;;;;6201442;23;20407;-84
2021/08/21 17:07:36;;;;;;;10.20;8.60;;;23.90;99.90;;;;;;6201705;23;20426;-83
2021/08/21 17:10:05;;;;;;;11.70;10.57;;;23.90;99.90;;;;;;6200627;23;20439;-85
2021/08/21 17:12:32;;;;;;;11.60;9.20;;;23.80;99.90;;;;;;6200643;23;20718;-85
2021/08/21 17:15:02;;;;;;;10.70;8.70;;;23.80;99.90;;;;;;6201568;23;20403;-83
2021/08/21 17:17:29;;;;;;;10.97;9.20;;;23.80;99.90;;;;;;6204983;23;20407;-84
2021/08/21 17:19:56;;;;;;;9.90;8.40;;;23.80;99.90;;;;;;6201448;23;20400;-85
2021/08/21 17:22:24;;;;;;;9.17;8.17;;;23.90;99.90;;;;;;6201421;23;20728;-83
2021/08/21 17:24:51;;;;;;;10.33;9.27;;;23.90;99.90;;;;;;6200857;23;20854;-85
2021/08/21 17:27:20;;;;;;;11.67;10.63;;;23.90;99.90;;;;;;6198135;23;20451;-84
2021/08/21 17:29:47;;;;;;;10.60;9.50;;;24.00;99.90;;;;;;6198786;23;20474;-83
2021/08/21 17:32:14;;;;;;;11.63;10.43;;;23.90;99.90;;;;;;6199813;23;20887;-83
2021/08/21 17:34:41;;;;;;;11.43;10.30;;;23.80;99.90;;;;;;6199046;23;20416;-83
2021/08/21 17:37:08;;;;;;;12.20;10.90;;;23.80;99.90;;;;;;6199870;23;20438;-84
2021/08/21 17:39:36;;;;;;;10.37;8.80;;;23.70;99.90;;;;;;6204359;23;20422;-83
2021/08/21 17:42:03;;;;;;;11.27;10.20;;;23.60;99.90;;;;;;6203964;23;20431;-85
2021/08/21 17:44:32;;;;;;;11.23;10.13;;;23.50;99.90;;;;;;6203887;23;20418;-85
2021/08/21 17:46:59;;;;;;;12.40;10.50;;;23.40;99.90;;;;;;6206394;23;20487;-85
2021/08/21 17:49:26;;;;;;;14.00;9.27;;;23.30;99.90;;;;;;6205561;23;20403;-83
2021/08/21 17:51:53;;;;;;;16.50;9.97;;;23.30;99.90;;;;;;6205286;23;20400;-86
2021/08/21 17:54:20;;;;;;;9.40;8.60;;;23.30;99.90;;;;;;6205022;23;20433;-83
2021/08/21 17:56:48;;;;;;;11.40;10.23;;;23.20;99.90;;;;;;6205909;23;20434;-85
2021/08/21 17:59:15;;;;;;;11.00;9.87;;;23.10;99.90;;;;;;6206883;23;20408;-84
2021/08/21 18:01:44;;;;;;;12.00;10.80;;;23.10;99.90;;;;;;6206097;23;20414;-86
2021/08/21 18:04:11;;;;;;;10.27;9.10;;;23.10;99.90;;;;;;6208279;23;20745;-82
2021/08/21 18:06:39;;;;;;;11.67;10.20;;;23.00;99.90;;;;;;6207308;23;20428;-83
2021/08/21 18:09:07;;;;;;;13.03;10.73;;;23.10;99.90;;;;;;6206083;23;20463;-83
2021/08/21 18:11:35;;;;;;;19.07;14.93;;;23.00;99.90;;;;;;6205627;23;20427;-84
2021/08/21 18:14:08;;;;;;;16.77;15.17;;;23.00;99.90;;;;;;6199765;23;20396;-84
2021/08/21 18:16:36;;;;;;;15.30;13.77;;;23.10;99.90;;;;;;6199614;23;20445;-85
2021/08/21 18:19:05;;;;;;;13.03;11.70;;;23.00;99.90;;;;;;6199298;23;20426;-85
2021/08/21 18:21:33;;;;;;;11.43;10.33;;;23.00;99.90;;;;;;6200979;23;20472;-82
2021/08/21 18:24:01;;;;;;;11.53;10.33;;;23.00;99.90;;;;;;6201255;23;20408;-82
2021/08/21 18:26:29;;;;;;;12.13;9.80;;;23.00;99.90;;;;;;6196541;23;20437;-84
2021/08/21 18:28:56;;;;;;;11.20;10.17;;;22.90;99.90;;;;;;6199210;23;20407;-84
2021/08/21 18:31:23;;;;;;;11.20;10.00;;;22.90;99.90;;;;;;6200338;23;20550;-82
2021/08/21 18:33:50;;;;;;;10.30;9.23;;;22.80;99.90;;;;;;6199028;23;20415;-84
2021/08/21 18:36:18;;;;;;;11.43;10.23;;;22.70;99.90;;;;;;6197181;23;20442;-83
2021/08/21 18:38:46;;;;;;;10.77;9.77;;;22.60;99.90;;;;;;6196053;23;20936;-84
2021/08/21 18:41:13;;;;;;;10.80;9.80;;;22.50;99.90;;;;;;6198765;23;20430;-83
2021/08/21 18:43:40;;;;;;;12.57;10.73;;;22.40;99.90;;;;;;6197711;23;20415;-82
2021/08/21 18:46:08;;;;;;;12.07;10.97;;;22.40;99.90;;;;;;6199505;23;20482;-83
2021/08/21 18:48:36;;;;;;;14.83;11.00;;;22.30;99.90;;;;;;6199788;23;20415;-84
2021/08/21 18:51:06;;;;;;;12.13;10.90;;;22.20;99.90;;;;;;6200470;23;20486;-81
2021/08/21 18:53:35;;;;;;;13.07;10.43;;;22.20;99.90;;;;;;6200493;23;20418;-82
2021/08/21 18:56:02;;;;;;;11.37;10.27;;;22.10;99.90;;;;;;6199629;23;20431;-84
2021/08/21 18:58:29;;;;;;;15.20;11.50;;;22.10;99.90;;;;;;6191555;23;20711;-86
2021/08/21 19:00:57;;;;;;;13.23;11.83;;;22.00;99.90;;;;;;6200515;23;20433;-85
2021/08/21 19:03:24;;;;;;;14.97;12.00;;;21.90;99.90;;;;;;6204655;23;20407;-82
2021/08/21 19:05:52;;;;;;;12.80;11.17;;;21.90;99.90;;;;;;6204443;23;20435;-83
2021/08/21 19:08:22;;;;;;;11.57;10.47;;;21.90;99.90;;;;;;6205513;23;20415;-83
2021/08/21 19:10:53;;;;;;;11.77;10.57;;;21.80;99.90;;;;;;6203783;23;20478;-81
2021/08/21 19:13:20;;;;;;;13.50;12.20;;;21.80;99.90;;;;;;6202083;23;20446;-83
2021/08/21 19:15:49;;;;;;;12.63;11.43;;;21.80;99.90;;;;;;6203155;23;20437;-83
2021/08/21 19:18:17;;;;;;;12.73;11.50;;;21.80;99.90;;;;;;6177328;23;20411;-82
2021/08/21 19:20:45;;;;;;;13.43;12.23;;;21.80;99.90;;;;;;6200233;23;20410;-85
2021/08/21 19:23:14;;;;;;;13.37;12.07;;;21.80;99.90;;;;;;6202023;23;20426;-83
2021/08/21 19:25:42;;;;;;;13.20;11.90;;;21.80;99.90;;;;;;6202524;23;20485;-83
2021/08/21 19:28:10;;;;;;;13.90;12.43;;;21.80;99.90;;;;;;6200782;23;20412;-85
2021/08/21 19:30:37;;;;;;;11.70;10.60;;;21.70;99.90;;;;;;6202216;23;20447;-83
2021/08/21 19:33:05;;;;;;;13.90;12.40;;;21.80;99.90;;;;;;6201990;23;20407;-84
2021/08/21 19:35:32;;;;;;;15.10;12.83;;;21.70;99.90;;;;;;6200603;23;20434;-84
2021/08/21 19:37:59;;;;;;;13.10;11.90;;;21.70;99.90;;;;;;6202861;23;20407;-84
2021/08/21 19:40:26;;;;;;;13.10;11.10;;;21.60;99.90;;;;;;6200306;23;20391;-83
2021/08/21 19:42:53;;;;;;;12.60;11.37;;;21.60;99.90;;;;;;6200997;23;20518;-84
2021/08/21 19:45:22;;;;;;;13.30;11.90;;;21.60;99.90;;;;;;6199738;23;20406;-82
2021/08/21 19:47:49;;;;;;;13.73;12.30;;;21.50;99.90;;;;;;6200122;23;20406;-85
2021/08/21 19:50:16;;;;;;;13.57;12.27;;;21.50;99.90;;;;;;6202022;23;20410;-82
2021/08/21 19:52:43;;;;;;;14.40;12.90;;;21.60;99.90;;;;;;6201142;23;20419;-84
2021/08/21 19:55:27;;;;;;;14.60;13.20;;;21.60;99.90;;;;;;6200523;23;20414;-83
2021/08/21 19:57:56;;;;;;;13.53;12.23;;;21.50;99.90;;;;;;6200474;23;20494;-83
2021/08/21 20:00:35;;;;;;;13.67;12.27;;;21.50;99.90;;;;;;6200928;23;20406;-85
2021/08/21 20:03:26;;;;;;;13.90;12.60;;;21.40;99.90;;;;;;6205411;23;20415;-84
2021/08/21 20:05:57;;;;;;;15.17;13.67;;;21.40;99.90;;;;;;6204435;23;20501;-86
2021/08/21 20:08:38;;;;;;;14.10;12.60;;;21.30;99.90;;;;;;6173346;23;20387;-83
2021/08/21 20:11:05;;;;;;;14.70;13.13;;;21.20;99.90;;;;;;6183780;23;20741;-68
2021/08/21 20:13:32;;;;;;;15.50;14.00;;;21.30;99.90;;;;;;6184024;23;20416;-67
2021/08/21 20:16:00;;;;;;;15.70;14.07;;;21.30;99.90;;;;;;6182540;23;20556;-67
2021/08/21 20:18:28;;;;;;;14.07;12.77;;;21.30;99.90;;;;;;6182846;23;20418;-67
2021/08/21 20:20:55;;;;;;;15.63;14.20;;;21.20;99.90;;;;;;6183669;23;20403;-67
2021/08/21 20:23:23;;;;;;;14.60;13.07;;;21.20;99.90;;;;;;6182810;23;20418;-67
2021/08/21 20:25:50;;;;;;;14.63;13.23;;;21.20;99.90;;;;;;6183611;23;20440;-67
2021/08/21 20:28:19;;;;;;;15.73;14.23;;;21.20;99.90;;;;;;6182742;23;20411;-68
2021/08/21 20:30:51;;;;;;;14.40;13.00;;;21.10;99.90;;;;;;6185701;23;20439;-67
2021/08/21 20:33:19;;;;;;;15.23;13.83;;;21.10;99.90;;;;;;6192354;23;20395;-68
2021/08/21 20:35:47;;;;;;;14.43;13.00;;;21.10;99.90;;;;;;6193221;23;20434;-67
2021/08/21 20:38:15;;;;;;;14.67;13.17;;;21.10;99.90;;;;;;6197606;23;20422;-66
2021/08/21 20:40:42;;;;;;;14.27;12.87;;;21.10;99.90;;;;;;6192339;23;20470;-66
2021/08/21 20:43:09;;;;;;;15.40;13.90;;;21.00;99.90;;;;;;6191563;23;20413;-68
2021/08/21 20:45:39;;;;;;;16.27;14.53;;;21.00;99.90;;;;;;6189037;23;20426;-67
2021/08/21 20:48:07;;;;;;;16.23;14.53;;;21.00;99.90;;;;;;6188193;23;20392;-67
2021/08/21 20:50:36;;;;;;;15.27;13.83;;;21.00;99.90;;;;;;6184460;23;20410;-67
2021/08/21 20:53:04;;;;;;;15.50;14.03;;;20.90;99.90;;;;;;6184245;23;20493;-67
2021/08/21 20:55:31;;;;;;;14.13;12.83;;;20.90;99.90;;;;;;6183930;23;20439;-68
2021/08/21 20:57:58;;;;;;;15.23;13.73;;;20.80;99.90;;;;;;6183799;23;20411;-66
2021/08/21 21:00:25;;;;;;;16.00;14.20;;;20.80;99.90;;;;;;6183571;23;20404;-67
2021/08/21 21:02:52;;;;;;;17.73;14.00;;;20.80;99.90;;;;;;6183584;23;20751;-67
2021/08/21 21:05:19;;;;;;;13.80;12.40;;;20.70;99.90;;;;;;6183868;23;20412;-68
2021/08/21 21:07:48;;;;;;;13.23;11.50;;;20.60;99.90;;;;;;6183464;23;20415;-69
2021/08/21 21:10:15;;;;;;;15.87;14.27;;;20.60;99.90;;;;;;6182245;23;20404;-69
2021/08/21 21:12:42;;;;;;;15.00;13.33;;;20.60;99.90;;;;;;6182081;23;20974;-68
2021/08/21 21:15:11;;;;;;;13.33;12.13;;;20.60;99.90;;;;;;6181346;23;20409;-70
2021/08/21 21:17:38;;;;;;;14.93;13.43;;;20.60;99.90;;;;;;6182720;23;20730;-68
2021/08/21 21:20:07;;;;;;;14.80;13.30;;;20.60;99.90;;;;;;6181284;23;20394;-69
2021/08/21 21:22:34;;;;;;;14.80;13.43;;;20.60;99.90;;;;;;6183201;23;20509;-70
2021/08/21 21:25:02;;;;;;;15.87;13.47;;;20.60;99.90;;;;;;6182614;23;20415;-66
2021/08/21 21:27:29;;;;;;;13.50;12.20;;;20.60;99.90;;;;;;6183044;23;20437;-68
2021/08/21 21:29:56;;;;;;;14.37;12.97;;;20.60;99.90;;;;;;6182610;23;20508;-71
2021/08/21 21:32:24;;;;;;;15.77;13.90;;;20.60;99.90;;;;;;6182591;23;20426;-70
2021/08/21 21:34:52;;;;;;;15.00;13.60;;;20.50;99.90;;;;;;6181753;23;20459;-68
2021/08/21 21:37:19;;;;;;;15.70;13.20;;;20.50;99.90;;;;;;6180752;23;20958;-69
2021/08/21 21:39:46;;;;;;;17.27;13.60;;;20.50;99.90;;;;;;6183252;23;20427;-71
2021/08/21 21:42:15;;;;;;;14.17;12.87;;;20.50;99.90;;;;;;6182486;23;20405;-69
2021/08/21 21:44:43;;;;;;;14.87;13.57;;;20.50;99.90;;;;;;6183568;23;20414;-66
2021/08/21 21:47:10;;;;;;;16.27;14.27;;;20.40;99.90;;;;;;6182900;23;20892;-67
2021/08/21 21:49:37;;;;;;;15.37;13.30;;;20.40;99.90;;;;;;6182545;23;20409;-68
2021/08/21 21:52:06;;;;;;;16.83;12.40;;;20.30;99.90;;;;;;6181955;23;20515;-68
2021/08/21 21:54:33;;;;;;;13.93;12.60;;;20.30;99.90;;;;;;6184925;23;20471;-69
2021/08/21 21:57:00;;;;;;;12.80;11.50;;;20.20;99.90;;;;;;6183448;23;20935;-70
2021/08/21 21:59:28;;;;;;;14.17;12.50;;;20.20;99.90;;;;;;6182982;23;20412;-67
2021/08/21 22:01:55;;;;;;;13.50;12.10;;;20.10;99.90;;;;;;6182051;23;20908;-69
2021/08/21 22:04:22;;;;;;;13.60;12.30;;;20.00;99.90;;;;;;6181402;23;20931;-68
2021/08/21 22:06:49;;;;;;;13.10;11.90;;;20.10;99.90;;;;;;6181050;23;20432;-69
2021/08/21 22:09:16;;;;;;;13.23;12.03;;;20.10;99.90;;;;;;6181350;23;20699;-68
2021/08/21 22:11:44;;;;;;;14.93;13.43;;;20.10;99.90;;;;;;6181952;23;20443;-68
2021/08/21 22:14:11;;;;;;;12.80;11.57;;;20.00;99.90;;;;;;6182509;23;20413;-69
2021/08/21 22:16:40;;;;;;;14.37;13.07;;;20.00;99.90;;;;;;6182528;23;20435;-68
2021/08/21 22:19:07;;;;;;;14.27;12.73;;;20.00;99.90;;;;;;6181630;23;20430;-68
2021/08/21 22:21:35;;;;;;;15.67;12.90;;;20.00;99.90;;;;;;6181288;23;20411;-68
2021/08/21 22:24:02;;;;;;;14.83;13.33;;;20.00;99.90;;;;;;6182221;23;20526;-68
2021/08/21 22:26:29;;;;;;;12.90;11.67;;;19.90;99.90;;;;;;6182559;23;20435;-68
2021/08/21 22:28:56;;;;;;;12.83;11.60;;;19.90;99.90;;;;;;6182239;23;20417;-68
2021/08/21 22:31:23;;;;;;;12.03;10.93;;;19.90;99.90;;;;;;6182432;23;20950;-68
2021/08/21 22:33:51;;;;;;;12.80;10.90;;;19.80;99.90;;;;;;6185046;23;20438;-68
2021/08/21 22:36:18;;;;;;;9.93;8.93;;;19.80;99.90;;;;;;6184893;23;20470;-68
2021/08/21 22:38:45;;;;;;;12.23;10.97;;;19.80;99.90;;;;;;6184125;23;20415;-67
2021/08/21 22:41:12;;;;;;;11.30;10.20;;;19.80;99.90;;;;;;6183686;23;20412;-67
2021/08/21 22:43:39;;;;;;;9.80;8.90;;;19.80;99.90;;;;;;6183406;23;20403;-68
2021/08/21 22:46:06;;;;;;;10.10;9.20;;;19.80;99.90;;;;;;6184185;23;20426;-67
2021/08/21 22:48:35;;;;;;;11.50;9.47;;;19.90;99.90;;;;;;6183639;23;20438;-67
2021/08/21 22:51:04;;;;;;;10.00;9.00;;;19.80;99.90;;;;;;6183676;23;20435;-67
2021/08/21 22:53:31;;;;;;;10.77;9.77;;;19.70;99.90;;;;;;6184727;23;20396;-67
2021/08/21 22:55:58;;;;;;;10.60;9.60;;;19.70;99.90;;;;;;6183716;23;20820;-68
